createdAt,value
2022-12-03T00:00:17.321Z,96645.06
2022-12-03T00:02:45.683Z,96577.47
2022-12-03T00:05:14.006Z,96645.25
2022-12-03T00:07:42.401Z,96674.94
2022-12-03T00:10:11.723Z,96691.09
2022-12-03T00:12:40.352Z,96664.59
2022-12-03T00:15:12.158Z,96639.66
2022-12-03T00:17:40.507Z,96657.31
2022-12-03T00:20:12.765Z,96640.31
2022-12-03T00:22:41.146Z,96711.03
2022-12-03T00:25:10.868Z,96695.03
2022-12-03T00:27:39.168Z,96678.13
2022-12-03T00:30:11.476Z,96648.34
2022-12-03T00:32:39.818Z,96638.81
2022-12-03T00:35:09.036Z,96551.56
2022-12-03T00:37:37.358Z,96680.22
2022-12-03T00:40:07.735Z,96628.63
2022-12-03T00:42:36.038Z,96641.22
2022-12-03T00:45:06.081Z,96655.50
2022-12-03T00:47:35.928Z,96657.16
2022-12-03T00:50:04.384Z,96549.91
2022-12-03T00:52:32.686Z,96650.41
2022-12-03T00:55:01.494Z,96639.44
2022-12-03T00:57:29.960Z,96616.59
2022-12-03T00:59:58.365Z,96541.06
2022-12-03T01:02:26.674Z,96643.47
2022-12-03T01:04:56.632Z,96636.56
2022-12-03T01:07:26.613Z,96615.13
2022-12-03T01:09:54.908Z,96626.97
2022-12-03T01:12:23.216Z,96621.78
2022-12-03T01:14:51.821Z,96595.69
2022-12-03T01:17:20.395Z,96534.03
2022-12-03T01:19:48.801Z,96641.91
2022-12-03T01:22:18.414Z,96638.84
2022-12-03T01:24:46.656Z,96677.59
2022-12-03T01:27:14.931Z,96641.75
2022-12-03T01:29:43.281Z,96667.81
2022-12-03T01:32:18.217Z,96690.72
2022-12-03T01:34:47.886Z,96634.31
2022-12-03T01:37:19.145Z,96592.03
2022-12-03T01:39:47.756Z,96697.53
2022-12-03T01:42:20.066Z,96638.19
2022-12-03T01:44:49.148Z,96627.59
2022-12-03T01:47:19.403Z,96673.16
2022-12-03T01:49:52.157Z,96679.78
2022-12-03T01:52:25.297Z,96671.00
2022-12-03T01:54:56.943Z,96695.38
2022-12-03T01:57:29.515Z,96696.28
2022-12-03T01:59:59.592Z,96603.81
2022-12-03T02:02:30.989Z,96668.03
2022-12-03T02:04:59.945Z,96643.75
2022-12-03T02:07:32.458Z,96639.59
2022-12-03T02:10:02.993Z,96582.28
2022-12-03T02:12:37.579Z,96627.50
2022-12-03T02:15:07.651Z,96694.34
2022-12-03T02:17:36.140Z,96673.78
2022-12-03T02:20:09.941Z,96636.47
2022-12-03T02:22:47.902Z,96667.81
2022-12-03T02:25:20.796Z,96656.00
2022-12-03T02:27:50.202Z,96615.91
2022-12-03T02:30:23.017Z,96667.16
2022-12-03T02:32:53.208Z,96568.03
2022-12-03T02:35:25.798Z,96649.59
2022-12-03T02:37:59.397Z,96673.63
2022-12-03T02:40:33.176Z,96671.03
2022-12-03T02:43:04.225Z,96649.78
2022-12-03T02:45:36.050Z,96660.09
2022-12-03T02:48:11.537Z,96669.88
2022-12-03T02:50:44.067Z,96604.91
2022-12-03T02:53:19.249Z,96598.44
2022-12-03T02:55:49.794Z,96658.44
2022-12-03T02:58:18.785Z,96615.50
2022-12-03T03:00:49.370Z,96625.59
2022-12-03T03:06:12.729Z,96706.69
2022-12-03T03:08:43.043Z,96681.09
2022-12-03T03:11:13.252Z,96673.63
2022-12-03T03:13:41.866Z,96733.81
2022-12-03T03:16:10.725Z,96651.47
2022-12-03T03:18:40.171Z,96703.31
2022-12-03T03:21:09.008Z,96654.53
2022-12-03T03:23:37.302Z,96701.84
2022-12-03T03:26:11.438Z,96660.75
2022-12-03T03:28:44.389Z,96606.50
2022-12-03T03:31:15.995Z,96622.66
2022-12-03T03:33:46.835Z,96599.69
2022-12-03T03:36:16.587Z,96691.72
2022-12-03T03:38:45.472Z,96672.84
2022-12-03T03:41:14.812Z,96680.25
2022-12-03T03:43:45.398Z,96623.94
2022-12-03T03:46:14.153Z,96682.19
2022-12-03T03:48:57.578Z,96664.50
2022-12-03T03:51:26.262Z,96697.28
2022-12-03T03:53:54.698Z,96662.84
2022-12-03T03:56:23.573Z,96624.25
2022-12-03T03:58:53.206Z,96675.19
2022-12-03T04:01:22.026Z,96666.19
2022-12-03T04:03:50.439Z,96659.09
2022-12-03T04:06:18.815Z,96658.69
2022-12-03T04:08:47.670Z,96634.31
2022-12-03T04:11:33.485Z,96659.81
2022-12-03T04:14:03.198Z,96571.31
2022-12-03T04:16:31.587Z,96631.47
2022-12-03T04:18:59.950Z,96595.97
2022-12-03T04:21:45.858Z,96623.69
2022-12-03T04:24:14.246Z,96533.47
2022-12-03T04:27:00.260Z,96637.50
2022-12-03T04:29:29.904Z,96634.50
2022-12-03T04:32:16.685Z,96628.88
2022-12-03T04:35:02.692Z,96705.59
2022-12-03T04:37:31.004Z,96604.72
2022-12-03T04:39:59.273Z,96670.00
2022-12-03T04:42:27.545Z,96634.22
2022-12-03T04:44:58.383Z,96640.75
2022-12-03T04:47:26.671Z,96619.66
2022-12-03T04:49:54.976Z,96609.34
2022-12-03T04:52:23.232Z,96592.94
2022-12-03T04:54:51.733Z,96646.69
2022-12-03T04:57:20.228Z,96593.78
2022-12-03T04:59:48.469Z,96595.78
2022-12-03T05:02:18.392Z,96632.41
2022-12-03T05:04:47.651Z,96672.44
2022-12-03T05:07:24.643Z,96613.50
2022-12-03T05:10:09.466Z,96643.41
2022-12-03T05:12:37.831Z,96646.69
2022-12-03T05:15:08.082Z,96641.06
2022-12-03T05:17:37.802Z,96681.50
2022-12-03T05:20:25.266Z,96665.16
2022-12-03T05:22:53.552Z,96641.22
2022-12-03T05:25:21.838Z,96600.53
2022-12-03T05:27:50.151Z,96633.81
2022-12-03T05:30:18.935Z,96611.16
2022-12-03T05:32:48.554Z,96624.38
2022-12-03T05:35:17.026Z,96658.06
2022-12-03T05:37:45.301Z,96606.69
2022-12-03T05:40:14.978Z,96672.59
2022-12-03T05:42:54.422Z,96621.19
2022-12-03T05:45:23.423Z,96614.97
2022-12-03T05:47:53.716Z,96655.13
2022-12-03T05:50:23.500Z,96680.25
2022-12-03T05:52:52.488Z,96586.44
2022-12-03T05:55:21.191Z,96633.66
2022-12-03T05:57:49.611Z,96659.72
2022-12-03T06:00:21.494Z,96625.03
2022-12-03T06:02:49.900Z,96624.41
2022-12-03T06:05:20.999Z,96631.06
2022-12-03T06:07:51.081Z,96649.28
2022-12-03T06:10:21.969Z,96632.25
2022-12-03T06:12:50.536Z,96664.28
2022-12-03T06:15:19.310Z,96560.16
2022-12-03T06:17:47.908Z,96602.19
2022-12-03T06:20:20.060Z,96618.19
2022-12-03T06:22:48.822Z,96582.47
2022-12-03T06:25:17.627Z,96623.78
2022-12-03T06:27:46.078Z,96678.38
2022-12-03T06:30:15.736Z,96674.63
2022-12-03T06:32:43.954Z,96576.31
2022-12-03T06:35:12.655Z,96662.22
2022-12-03T06:37:42.275Z,96630.38
2022-12-03T06:40:13.392Z,96651.50
2022-12-03T06:42:42.094Z,96622.09
2022-12-03T06:45:11.472Z,96608.19
2022-12-03T06:47:39.729Z,96561.22
2022-12-03T06:50:09.601Z,96621.03
2022-12-03T06:52:37.915Z,96627.78
2022-12-03T06:55:09.236Z,96613.44
2022-12-03T06:57:37.491Z,96647.63
2022-12-03T07:00:09.465Z,96645.13
2022-12-03T07:02:37.770Z,96650.94
2022-12-03T07:05:07.633Z,96647.00
2022-12-03T07:07:41.349Z,96656.53
2022-12-03T07:10:12.366Z,96638.84
2022-12-03T07:12:40.628Z,96638.13
2022-12-03T07:15:10.128Z,96702.78
2022-12-03T07:17:38.419Z,96665.75
2022-12-03T07:20:09.005Z,96685.84
2022-12-03T07:22:37.329Z,96691.25
2022-12-03T07:25:07.278Z,96684.69
2022-12-03T07:27:36.948Z,96666.84
2022-12-03T07:30:06.894Z,96703.75
2022-12-03T07:32:35.103Z,96685.19
2022-12-03T07:35:07.203Z,96675.94
2022-12-03T07:37:35.529Z,96702.28
2022-12-03T07:40:04.945Z,96592.59
2022-12-03T07:42:33.325Z,96651.97
2022-12-03T07:45:03.521Z,96670.38
2022-12-03T07:47:31.856Z,96663.63
2022-12-03T07:50:00.144Z,96652.81
2022-12-03T07:52:28.361Z,96642.19
2022-12-03T07:54:56.709Z,96688.28
2022-12-03T07:57:25.089Z,96661.09
2022-12-03T07:59:53.368Z,96632.56
2022-12-03T08:02:23.040Z,96651.09
2022-12-03T08:04:56.934Z,96599.78
2022-12-03T08:07:25.793Z,96601.00
2022-12-03T08:09:54.272Z,96590.16
2022-12-03T08:12:40.071Z,96642.19
2022-12-03T08:15:14.956Z,96602.97
2022-12-03T08:17:46.273Z,96609.94
2022-12-03T08:20:18.473Z,96576.53
2022-12-03T08:22:49.500Z,96532.00
2022-12-03T08:25:23.523Z,96625.31
2022-12-03T08:27:54.699Z,96618.00
2022-12-03T08:30:23.204Z,96660.59
2022-12-03T08:32:52.999Z,96567.41
2022-12-03T08:35:25.266Z,96629.28
2022-12-03T08:38:00.865Z,96628.59
2022-12-03T08:40:35.745Z,96655.00
2022-12-03T08:43:14.910Z,96661.66
2022-12-03T08:45:44.151Z,96639.44
2022-12-03T08:48:37.806Z,96617.44
2022-12-03T08:51:14.681Z,96581.09
2022-12-03T08:53:47.080Z,96624.09
2022-12-03T08:56:23.435Z,96629.72
2022-12-03T08:58:55.459Z,96660.56
2022-12-03T09:01:42.937Z,96675.78
2022-12-03T09:04:28.662Z,96622.38
2022-12-03T09:06:58.232Z,96544.34
2022-12-03T09:09:27.681Z,96672.94
2022-12-03T09:11:56.047Z,96638.00
2022-12-03T09:14:24.561Z,96673.44
2022-12-03T09:16:55.840Z,96671.53
2022-12-03T09:19:30.833Z,96671.22
2022-12-03T09:21:59.649Z,96674.50
2022-12-03T09:24:27.937Z,96671.59
2022-12-03T09:26:56.143Z,96657.44
2022-12-03T09:29:24.437Z,96662.63
2022-12-03T09:31:54.268Z,96401.22
2022-12-03T09:34:22.628Z,96654.88
2022-12-03T09:36:52.343Z,96666.22
2022-12-03T09:39:20.588Z,96614.75
2022-12-03T09:41:49.058Z,96657.47
2022-12-03T09:44:18.366Z,96629.16
2022-12-03T09:46:47.891Z,96679.72
2022-12-03T09:49:19.774Z,96630.81
2022-12-03T09:51:48.371Z,96655.72
2022-12-03T09:54:24.854Z,96625.03
2022-12-03T09:56:54.243Z,96612.63
2022-12-03T09:59:24.553Z,96593.50
2022-12-03T10:01:53.888Z,96634.47
2022-12-03T10:04:22.694Z,96581.34
2022-12-03T10:06:51.232Z,96634.38
2022-12-03T10:09:27.349Z,96578.59
2022-12-03T10:11:57.382Z,96576.00
2022-12-03T10:14:26.449Z,96609.47
2022-12-03T10:16:56.037Z,96566.09
2022-12-03T10:19:29.272Z,96413.97
2022-12-03T10:21:57.678Z,96573.22
2022-12-03T10:24:30.046Z,96511.44
2022-12-03T10:27:00.895Z,96576.53
2022-12-03T10:29:34.243Z,96570.50
2022-12-03T10:32:06.551Z,96612.84
2022-12-03T10:34:37.504Z,96585.00
2022-12-03T10:37:16.545Z,96569.28
2022-12-03T10:39:59.634Z,96589.34
2022-12-03T10:42:30.592Z,96524.69
2022-12-03T10:45:18.579Z,96556.41
2022-12-03T10:48:07.035Z,96592.03
2022-12-03T10:50:37.907Z,96640.25
2022-12-03T10:53:11.113Z,96579.41
2022-12-03T10:55:44.075Z,96613.97
2022-12-03T10:58:22.622Z,96457.16
2022-12-03T11:00:53.233Z,96549.06
2022-12-03T11:03:24.506Z,96625.03
2022-12-03T11:05:54.807Z,96524.75
2022-12-03T11:08:25.770Z,96512.59
2022-12-03T11:11:01.459Z,96530.66
2022-12-03T11:13:51.105Z,96512.81
2022-12-03T11:17:07.312Z,96481.53
2022-12-03T11:19:50.156Z,96549.06
2022-12-03T11:22:40.613Z,96499.47
2022-12-03T11:25:50.514Z,96525.25
2022-12-03T11:28:54.143Z,96416.25
2022-12-03T11:31:39.279Z,96519.06
2022-12-03T11:34:50.726Z,96528.66
2022-12-03T11:37:29.490Z,96533.03
2022-12-03T11:40:27.475Z,96553.47
2022-12-03T11:42:55.794Z,96560.88
2022-12-03T11:45:35.182Z,96562.53
2022-12-03T11:48:14.076Z,96579.09
2022-12-03T11:50:44.846Z,96503.00
2022-12-03T11:53:21.228Z,96509.03
2022-12-03T11:56:06.075Z,96507.06
2022-12-03T11:58:36.364Z,96525.22
2022-12-03T12:01:08.320Z,96522.47
2022-12-03T12:03:43.821Z,96467.22
2022-12-03T12:06:14.201Z,96459.09
2022-12-03T12:08:56.424Z,96474.88
2022-12-03T12:11:30.618Z,96515.31
2022-12-03T12:14:00.788Z,96429.28
2022-12-03T12:16:50.169Z,96517.44
2022-12-03T12:19:41.408Z,96520.50
2022-12-03T12:22:32.845Z,96511.25
2022-12-03T12:25:02.652Z,96511.63
2022-12-03T12:27:37.586Z,96523.69
2022-12-03T12:30:09.333Z,96509.97
2022-12-03T12:32:47.114Z,96481.53
2022-12-03T12:35:19.851Z,96524.03
2022-12-03T12:37:59.224Z,96486.03
2022-12-03T12:40:30.947Z,96454.03
2022-12-03T12:43:08.446Z,96494.75
2022-12-03T12:45:43.064Z,96476.34
2022-12-03T12:48:24.729Z,96470.31
2022-12-03T12:51:00.786Z,96415.84
2022-12-03T12:53:31.944Z,96535.25
2022-12-03T12:56:02.887Z,96533.59
2022-12-03T12:58:33.705Z,96506.53
2022-12-03T13:01:07.618Z,96466.16
2022-12-03T13:03:41.002Z,96511.63
2022-12-03T13:06:35.940Z,96486.72
2022-12-03T13:09:04.622Z,96524.13
2022-12-03T13:11:41.245Z,96479.53
2022-12-03T13:14:17.902Z,96497.34
2022-12-03T13:16:47.476Z,96381.56
2022-12-03T13:19:24.596Z,96493.19
2022-12-03T13:21:54.206Z,96462.38
2022-12-03T13:24:33.087Z,96482.22
2022-12-03T13:27:06.533Z,96398.63
2022-12-03T13:29:34.961Z,96449.66
2022-12-03T13:32:11.254Z,96460.03
2022-12-03T13:34:41.951Z,96272.28
2022-12-03T13:37:17.838Z,96395.00
2022-12-03T13:39:49.283Z,96493.34
2022-12-03T13:42:42.286Z,96462.13
2022-12-03T13:45:33.345Z,96448.22
2022-12-03T13:48:05.031Z,96473.75
2022-12-03T13:50:38.033Z,96481.28
2022-12-03T13:53:17.211Z,96478.69
2022-12-03T13:55:47.674Z,96450.34
2022-12-03T13:58:16.058Z,96488.63
2022-12-03T14:00:45.094Z,96472.81
2022-12-03T14:03:13.391Z,96462.19
2022-12-03T14:05:43.246Z,96398.19
2022-12-03T14:08:11.562Z,96443.75
2022-12-03T14:10:40.080Z,96392.28
2022-12-03T14:13:08.575Z,96405.25
2022-12-03T14:15:38.059Z,96231.13
2022-12-03T14:18:06.607Z,96400.19
2022-12-03T14:20:36.460Z,96456.00
2022-12-03T14:23:06.077Z,96500.25
2022-12-03T14:25:34.468Z,96439.22
2022-12-03T14:28:02.823Z,96488.34
2022-12-03T14:30:31.456Z,96502.09
2022-12-03T14:32:59.675Z,96448.66
2022-12-03T14:35:28.088Z,96466.59
2022-12-03T14:37:56.341Z,96436.59
2022-12-03T14:40:26.288Z,96473.44
2022-12-03T14:42:54.522Z,96491.16
2022-12-03T14:45:24.227Z,96483.16
2022-12-03T14:47:52.608Z,96436.41
2022-12-03T14:50:20.907Z,96444.41
2022-12-03T14:52:49.115Z,96473.69
2022-12-03T14:55:17.564Z,96481.47
2022-12-03T14:57:47.173Z,96412.44
2022-12-03T15:00:16.824Z,96453.97
2022-12-03T15:02:47.486Z,96447.72
2022-12-03T15:05:15.904Z,96416.59
2022-12-03T15:07:44.148Z,96452.94
2022-12-03T15:10:12.926Z,96434.19
2022-12-03T15:12:41.127Z,96438.66
2022-12-03T15:15:12.141Z,96459.56
2022-12-03T15:17:40.350Z,96446.44
2022-12-03T15:20:10.256Z,96495.09
2022-12-03T15:22:38.425Z,96516.25
2022-12-03T15:25:07.886Z,96470.66
2022-12-03T15:27:36.154Z,96469.72
2022-12-03T15:30:05.085Z,96468.06
2022-12-03T15:32:34.676Z,96475.28
2022-12-03T15:35:02.985Z,96471.38
2022-12-03T15:37:31.216Z,96418.03
2022-12-03T15:39:59.665Z,96480.81
2022-12-03T15:42:29.698Z,96478.22
2022-12-03T15:44:57.969Z,96447.78
2022-12-03T15:47:26.674Z,96442.59
2022-12-03T15:49:56.629Z,96519.41
2022-12-03T15:52:25.120Z,96450.59
2022-12-03T15:54:53.619Z,96496.16
2022-12-03T15:57:23.586Z,96469.97
2022-12-03T15:59:52.747Z,96445.03
2022-12-03T16:02:21.152Z,96461.94
2022-12-03T16:04:49.515Z,96486.28
2022-12-03T16:07:19.146Z,96472.31
2022-12-03T16:09:47.401Z,96439.63
2022-12-03T16:12:15.617Z,96429.09
2022-12-03T16:14:44.340Z,96506.31
2022-12-03T16:17:12.591Z,96467.09
2022-12-03T16:19:40.810Z,96528.94
2022-12-03T16:22:09.038Z,96413.16
2022-12-03T16:24:38.774Z,96511.69
2022-12-03T16:27:07.240Z,96479.34
2022-12-03T16:29:35.701Z,96486.66
2022-12-03T16:32:04.008Z,96425.19
2022-12-03T16:34:32.288Z,96474.47
2022-12-03T16:37:00.674Z,96448.66
2022-12-03T16:39:28.987Z,96434.69
2022-12-03T16:41:58.544Z,96462.69
2022-12-03T16:44:43.698Z,96510.91
2022-12-03T16:47:11.938Z,96439.06
2022-12-03T16:49:40.229Z,96456.63
2022-12-03T16:52:08.440Z,96463.25
2022-12-03T16:54:37.710Z,96521.53
2022-12-03T16:57:07.473Z,96439.69
2022-12-03T16:59:35.788Z,96460.44
2022-12-03T17:02:04.153Z,96474.97
2022-12-03T17:04:34.279Z,96487.34
2022-12-03T17:07:02.695Z,96516.88
2022-12-03T17:09:31.200Z,96429.28
2022-12-03T17:12:00.613Z,96457.69
2022-12-03T17:14:33.380Z,96433.50
2022-12-03T17:17:01.898Z,96456.75
2022-12-03T17:19:30.260Z,96461.38
2022-12-03T17:21:59.691Z,96451.91
2022-12-03T17:24:27.921Z,96403.19
2022-12-03T17:26:56.264Z,96458.28
2022-12-03T17:29:24.537Z,96409.44
2022-12-03T17:31:54.202Z,96461.44
2022-12-03T17:34:22.553Z,96401.03
2022-12-03T17:36:50.888Z,96473.16
2022-12-03T17:39:19.269Z,96450.03
2022-12-03T17:41:47.503Z,96442.25
2022-12-03T17:44:20.733Z,96483.31
2022-12-03T17:46:49.507Z,96443.97
2022-12-03T17:49:19.155Z,96420.75
2022-12-03T17:51:47.412Z,96451.41
2022-12-03T17:54:15.724Z,96388.44
2022-12-03T17:56:44.407Z,96413.00
2022-12-03T17:59:13.182Z,96399.66
2022-12-03T18:01:41.581Z,96424.09
2022-12-03T18:04:10.670Z,96433.34
2022-12-03T18:06:40.478Z,96436.41
2022-12-03T18:09:08.755Z,96425.88
2022-12-03T18:11:37.285Z,96445.81
2022-12-03T18:14:05.578Z,96371.00
2022-12-03T18:16:34.208Z,96439.75
2022-12-03T18:19:06.276Z,96383.28
2022-12-03T18:21:35.556Z,96408.94
2022-12-03T18:24:06.537Z,96451.63
2022-12-03T18:26:35.633Z,96427.81
2022-12-03T18:29:03.958Z,96412.47
2022-12-03T18:31:32.233Z,96431.81
2022-12-03T18:34:00.501Z,96391.72
2022-12-03T18:36:35.270Z,96420.75
2022-12-03T18:39:09.185Z,96445.81
2022-12-03T18:41:37.367Z,96380.66
2022-12-03T18:44:10.742Z,96425.97
2022-12-03T18:46:54.496Z,96409.66
2022-12-03T18:49:23.114Z,96408.44
2022-12-03T18:51:57.326Z,96413.19
2022-12-03T18:54:28.805Z,96424.19
2022-12-03T18:56:57.088Z,96401.28
2022-12-03T18:59:25.332Z,96371.41
2022-12-03T19:01:53.683Z,96396.22
2022-12-03T19:04:24.554Z,96431.38
2022-12-03T19:07:18.247Z,96447.91
2022-12-03T19:09:48.258Z,96381.88
2022-12-03T19:12:17.884Z,96372.31
2022-12-03T19:14:46.517Z,96420.78
2022-12-03T19:17:14.720Z,96358.97
2022-12-03T19:19:42.973Z,96403.09
2022-12-03T19:22:11.229Z,96355.75
2022-12-03T19:24:39.490Z,96399.56
2022-12-03T19:27:09.170Z,96340.00
2022-12-03T19:29:37.463Z,96412.06
2022-12-03T19:32:06.219Z,96333.50
2022-12-03T19:34:34.536Z,96431.91
2022-12-03T19:37:02.806Z,96390.22
2022-12-03T19:39:31.814Z,96389.41
2022-12-03T19:42:00.307Z,96426.91
2022-12-03T19:44:29.864Z,96358.50
2022-12-03T19:46:58.095Z,96388.91
2022-12-03T19:49:27.194Z,96335.53
2022-12-03T19:51:55.471Z,96444.88
2022-12-03T19:54:24.400Z,96396.75
2022-12-03T19:56:52.623Z,96411.84
2022-12-03T19:59:20.854Z,96379.28
2022-12-03T20:01:50.567Z,96381.97
2022-12-03T20:04:18.951Z,96304.72
2022-12-03T20:06:47.531Z,96356.13
2022-12-03T20:09:17.950Z,96378.53
2022-12-03T20:11:47.001Z,96390.81
2022-12-03T20:14:17.482Z,96302.75
2022-12-03T20:16:46.458Z,96366.47
2022-12-03T20:19:18.553Z,96414.66
2022-12-03T20:21:46.910Z,96436.53
2022-12-03T20:24:18.237Z,96369.34
2022-12-03T20:26:46.541Z,96402.31
2022-12-03T20:29:14.835Z,96349.47
2022-12-03T20:31:43.221Z,96368.41
2022-12-03T20:34:12.543Z,96371.63
2022-12-03T20:36:44.139Z,96377.50
2022-12-03T20:39:12.763Z,96346.41
2022-12-03T20:41:41.327Z,96312.69
2022-12-03T20:44:09.963Z,96299.53
2022-12-03T20:46:38.271Z,96419.84
2022-12-03T20:49:06.629Z,96381.59
2022-12-03T20:51:34.945Z,96421.03
2022-12-03T20:54:04.912Z,96335.38
2022-12-03T20:56:36.124Z,96373.13
2022-12-03T20:59:09.121Z,96409.91
2022-12-03T21:01:38.472Z,96338.31
2022-12-03T21:04:08.495Z,96412.38
2022-12-03T21:06:38.559Z,96350.94
2022-12-03T21:09:10.195Z,96375.25
2022-12-03T21:11:42.216Z,96380.47
2022-12-03T21:14:11.914Z,96378.06
2022-12-03T21:19:30.861Z,96390.56
2022-12-03T21:21:59.147Z,96320.00
2022-12-03T21:24:30.358Z,96324.41
2022-12-03T21:26:58.679Z,96341.53
2022-12-03T21:29:26.942Z,96297.19
2022-12-03T21:31:55.182Z,96358.03
2022-12-03T21:34:23.459Z,96329.03
2022-12-03T21:36:51.689Z,96323.00
2022-12-03T21:39:20.204Z,96404.75
2022-12-03T21:42:22.259Z,96311.09
2022-12-03T21:44:38.402Z,96340.81
2022-12-03T21:47:12.136Z,96380.19
2022-12-03T21:49:42.933Z,96326.50
2022-12-03T21:52:13.524Z,96360.00
2022-12-03T21:54:42.221Z,96391.78
2022-12-03T21:57:12.004Z,96329.78
2022-12-03T21:59:40.295Z,96313.31
2022-12-03T22:02:08.617Z,96312.28
2022-12-03T22:04:37.034Z,96343.16
2022-12-03T22:07:06.626Z,96300.97
2022-12-03T22:09:35.022Z,96294.81
2022-12-03T22:12:03.270Z,96331.16
2022-12-03T22:14:33.000Z,96312.72
2022-12-03T22:17:01.623Z,96296.72
2022-12-03T22:19:30.181Z,96284.47
2022-12-03T22:21:58.455Z,96326.31
2022-12-03T22:24:26.733Z,96313.72
2022-12-03T22:26:55.114Z,96173.50
2022-12-03T22:29:23.793Z,96293.41
2022-12-03T22:31:53.455Z,96320.06
2022-12-03T22:34:21.784Z,96296.72
2022-12-03T22:36:50.038Z,96299.53
2022-12-03T22:39:18.321Z,96301.91
2022-12-03T22:41:46.661Z,96303.56
2022-12-03T22:44:14.973Z,96309.31
2022-12-03T22:46:43.376Z,96314.88
2022-12-03T22:49:13.833Z,96346.94
2022-12-03T22:51:42.311Z,96321.59
2022-12-03T22:54:12.000Z,96291.31
2022-12-03T22:56:40.504Z,96298.16
2022-12-03T22:59:08.876Z,96297.19
2022-12-03T23:01:39.765Z,96284.78
2022-12-03T23:04:13.056Z,96294.00
2022-12-03T23:06:41.399Z,96338.00
2022-12-03T23:09:10.071Z,96247.19
2022-12-03T23:11:53.763Z,96277.13
2022-12-03T23:14:22.066Z,96250.84
2022-12-03T23:16:50.358Z,96307.09
2022-12-03T23:19:21.013Z,96291.88
2022-12-03T23:21:49.358Z,96304.72
2022-12-03T23:24:17.658Z,96363.25
2022-12-03T23:26:45.909Z,96306.63
2022-12-03T23:29:14.226Z,96334.25
2022-12-03T23:31:42.667Z,96232.81
2022-12-03T23:34:11.224Z,96237.56
2022-12-03T23:36:40.938Z,96293.88
2022-12-03T23:39:09.253Z,96269.59
2022-12-03T23:41:37.539Z,96321.97
2022-12-03T23:44:05.839Z,96275.00
2022-12-03T23:46:34.178Z,96234.28
2022-12-03T23:49:02.453Z,96265.78
2022-12-03T23:51:30.692Z,96278.06
2022-12-03T23:54:00.292Z,96231.47
2022-12-03T23:56:31.269Z,96226.75
2022-12-03T23:59:00.164Z,96205.91
